This is the latest recevied weather packets stored in our database for station/object KK7AZD-13. If no packets are shown the sender has not sent any weather packets the latest 1 day(s).
| Time | Temp. | Humidity | Pressure | Rain* | Wind** | Luminosity | Snow |
|---|---|---|---|---|---|---|---|
| 1778031948 | 20° C | 53% | 1013.9 hPa | 0 mm | 2.24 m/s, 269° | 139 W/m² | - |
| 1778031044 | 20.56° C | 51% | 1013.7 hPa | 0 mm | 4.02 m/s, 309° | 153 W/m² | - |
| 1778030140 | 20.56° C | 50% | 1013.8 hPa | 0 mm | 3.13 m/s, 271° | 234 W/m² | - |
| 1778029238 | 20.56° C | 49% | 1013.3 hPa | 0 mm | 4.02 m/s, 324° | 269 W/m² | - |
| 1778028334 | 21.11° C | 48% | 1013.6 hPa | 0 mm | 2.24 m/s, 299° | 346 W/m² | - |
| 1778027429 | 21.11° C | 49% | 1013.2 hPa | 0 mm | 3.13 m/s, 260° | 411 W/m² | - |
| 1778026524 | 20.56° C | 50% | 1013.5 hPa | 0 mm | 3.58 m/s, 307° | 374 W/m² | - |
| 1778025622 | 20.56° C | 51% | 1013.2 hPa | 0 mm | 2.68 m/s, 291° | 118 W/m² | - |
| 1778024719 | 21.11° C | 48% | 1013.2 hPa | 0 mm | 1.34 m/s, 301° | 150 W/m² | - |
| 1778023817 | 21.11° C | 48% | 1013.3 hPa | 0 mm | 2.24 m/s, 308° | 560 W/m² | - |
| 1778022914 | 22.22° C | 44% | 1013.5 hPa | 0 mm | 1.34 m/s, 331° | 710 W/m² | - |
| 1778022012 | 21.11° C | 46% | 1013.3 hPa | 0 mm | 2.24 m/s, 311° | 277 W/m² | - |
| 1778021108 | 21.67° C | 42% | 1013.1 hPa | 0 mm | 3.58 m/s, 324° | 162 W/m² | - |
| 1778020216 | 22.22° C | 35% | 1013 hPa | 0 mm | 3.13 m/s, 285° | 817 W/m² | - |
| 1778019299 | 21.67° C | 42% | 1013 hPa | 0 mm | 2.24 m/s, 307° | 195 W/m² | - |
| 1778018396 | 21.67° C | 40% | 1013.2 hPa | 0 mm | 2.68 m/s, 339° | 300 W/m² | - |
| 1778017495 | 21.67° C | 37% | 1013.3 hPa | 0 mm | 3.13 m/s, 270° | 208 W/m² | - |
| 1778016592 | 21.67° C | 41% | 1013.3 hPa | 0 mm | 2.68 m/s, 280° | 814 W/m² | - |
| 1778015689 | 21.11° C | 40% | 1013.3 hPa | 0 mm | 0.89 m/s, 287° | 163 W/m² | - |
| 1778014784 | 22.22° C | 39% | 1013.5 hPa | 0 mm | 2.24 m/s, 255° | 960 W/m² | - |
| 1778013883 | 22.78° C | 34% | 1013.2 hPa | 0 mm | 3.13 m/s, 278° | 936 W/m² | - |
| 1778012978 | 21.67° C | 37% | 1013.5 hPa | 0 mm | 2.24 m/s, 266° | 821 W/m² | - |
| 1778012074 | 21.67° C | 37% | 1013.5 hPa | 0 mm | 2.24 m/s, 304° | 915 W/m² | - |
| 1778011170 | 20.56° C | 37% | 1013.6 hPa | 0 mm | 2.68 m/s, 270° | 332 W/m² | - |
| 1778010268 | 20.56° C | 46% | 1013.5 hPa | 0 mm | 2.24 m/s, 298° | 851 W/m² | - |
* Rain latest hour (hover to see other rain measurements)
** Current wind speed in m/s (hover to see current wind gust speed)